Aérodrome :
LOGIN :

S'inscrire | Disclaimer

   EN    FR    IT 

 










Légende :    VFR   VFR Marginal   IFR   IFR Intensif   IFR Très Intensif
Visi : 
Plafond : 
>= 8 km
>= 3000ft
5 à 8 km
1000 à 3000 ft
1500m à 5 km
500 à 1000 ft
800 à 1500m
200 à 500 ft
< 800m
< 200 ft
Symboles :   Orages  Brouillard  Fortes neiges  Fortes précipitations  Vent > 20 kt
SIGMETs :   Divers  Orages  Givrage  Turbulence  Onde Orograph.  Cendres Volcan.






- Altitude de l'aérodrome : 922 ft
- Code IATA : RPN


LLIB - Ben Ya'akov

DERNIER METAR :
  • 200750Z 17006KT 4000 BR SCT003 BKN020 11/10 Q1022 RMK RERA

METARs EXPIRÉS :
  • 200650Z 14006KT 2000 BR SCT002 BKN010 10/10 Q1022 RMK RERA
  • 200550Z 17006KT 4000 BR SCT004 BKN012 10/10 Q1022

TAF TAF LLIB
Valide du 20 à 06h jusqu'au 21 à 06h UTC


200502Z 2006/2106 19006KT 4000 BR SCT004 BKN015
TEMPO 2006/2011 24013KT 2000 RA BR BKN003 FEW008TCU OVC010
FM201100 26010KT 7000 FEW010 SCT020
TEMPO 2011/2015 4000 -RA BR SCT005 BKN015
BECMG 2015/2017 VRB03KT 4000 BR SCT008 BKN015
PROB40 2017/2106 1500 -RA BCFG SCT003 BKN010 TX12/2012Z TN07/2104Z



MET'MAP, la Météo Aéronautique d'un coup d'oeil ! - Copyright ORBIFLY Décembre 2007 - Disclaimer

ORBIFLY MET'MAP TEAM :

Programmation & Développement : Alexandra Zaïnal
Sur une idée originale de : Baudouin d'Aumeries
Assistance à la programmation : Marc-Olivier Méhu
Soutien technique & logistique : Manuel Goepfert

Contact : metmap@orbifly.com




SOURCES & CREDITS :

   NOAA